Time;durP1;ratioP1;P1;durP2;ratioP2;P2;SDS_P1;SDS_P2;PMS_P1;PMS_P2;Temp;Humidity;BMP_temperature;BMP_pressure;BME280_temperature;BME280_humidity;BME280_pressure;Samples;Min_cycle;Max_cycle;Signal;HPM_P1;HPM_P2
2023/12/15 03:59:44;;;;;;;9.77;3.97;;;-0.10;99.90;;;;;;2074751;68;26323;-94
2023/12/15 04:16:20;;;;;;;8.20;3.70;;;0.00;99.90;;;;;;1982311;69;26989;-92
2023/12/15 04:33:14;;;;;;;7.20;4.23;;;0.00;99.90;;;;;;1946342;72;26375;-92
2023/12/15 05:19:41;;;;;;;13.20;5.43;;;0.20;99.90;;;;;;1870799;74;26519;-93
2023/12/15 06:36:33;;;;;;;10.13;4.37;;;0.40;99.90;;;;;;1898119;73;27848;-95
2023/12/15 07:01:51;;;;;;;20.97;7.37;;;0.40;99.90;;;;;;1893520;73;26375;-93
2023/12/15 07:45:42;;;;;;;24.40;9.13;;;0.70;99.90;;;;;;1936808;73;26467;-92
2023/12/15 08:02:04;;;;;;;16.73;7.20;;;0.70;99.90;;;;;;1959746;70;27580;-92
2023/12/15 08:59:07;;;;;;;22.73;7.30;;;1.40;99.90;;;;;;1861163;75;27143;-93
2023/12/15 09:50:24;;;;;;;32.37;7.67;;;1.70;99.90;;;;;;1962180;72;27627;-94
2023/12/15 09:53:24;;;;;;;31.00;7.50;;;1.80;99.90;;;;;;1933476;73;25234;-93
2023/12/15 09:56:04;;;;;;;35.83;7.23;;;1.70;99.90;;;;;;1925477;72;25791;-94
2023/12/15 09:59:07;;;;;;;25.30;5.97;;;1.60;99.90;;;;;;1942719;73;25627;-93
2023/12/15 10:05:12;;;;;;;25.03;6.00;;;1.60;99.90;;;;;;1927184;73;25182;-94
2023/12/15 10:08:01;;;;;;;20.60;5.93;;;1.60;99.90;;;;;;1927174;73;25166;-94
2023/12/15 10:11:03;;;;;;;28.47;7.50;;;1.70;99.90;;;;;;1930270;73;25196;-92
2023/12/15 10:14:07;;;;;;;16.53;5.17;;;1.80;99.90;;;;;;1908042;73;25201;-94
2023/12/15 10:17:21;;;;;;;20.57;5.77;;;1.80;99.90;;;;;;1870522;75;25281;-93
2023/12/15 10:20:19;;;;;;;16.30;5.23;;;1.80;99.90;;;;;;1866483;75;25206;-93
2023/12/15 10:23:14;;;;;;;14.53;5.57;;;1.70;99.90;;;;;;1873343;75;25243;-93
2023/12/15 10:26:10;;;;;;;20.23;5.47;;;1.70;99.90;;;;;;1901173;74;25191;-94
2023/12/15 10:29:11;;;;;;;26.73;5.93;;;1.70;99.90;;;;;;1861213;75;25249;-93
2023/12/15 10:32:06;;;;;;;19.67;5.33;;;1.70;99.90;;;;;;1907559;74;25205;-94
2023/12/15 10:34:59;;;;;;;24.00;6.10;;;1.70;99.90;;;;;;1938682;72;25252;-94
2023/12/15 10:37:50;;;;;;;16.53;5.80;;;1.70;99.90;;;;;;1936690;73;25191;-94
2023/12/15 10:40:40;;;;;;;21.60;6.70;;;1.80;99.90;;;;;;1948148;73;25725;-93
2023/12/15 10:43:32;;;;;;;15.97;5.80;;;1.80;99.90;;;;;;1899418;73;25392;-94
2023/12/15 10:46:25;;;;;;;19.80;6.43;;;1.80;99.90;;;;;;1901648;73;25690;-93
2023/12/15 10:49:53;;;;;;;20.83;6.87;;;1.60;99.90;;;;;;1886722;74;25277;-93
2023/12/15 10:52:48;;;;;;;40.37;8.63;;;1.60;99.90;;;;;;1883560;76;25270;-93
2023/12/15 10:55:45;;;;;;;42.20;9.33;;;1.60;99.90;;;;;;1868436;76;25228;-92
2023/12/15 10:58:36;;;;;;;26.67;8.17;;;1.70;99.90;;;;;;1887354;74;25716;-93
2023/12/15 11:01:29;;;;;;;33.73;7.70;;;1.60;99.90;;;;;;1867537;76;25751;-92
2023/12/15 11:04:27;;;;;;;20.60;6.57;;;1.60;99.90;;;;;;1859172;76;25182;-93
2023/12/15 11:57:48;;;;;;;18.80;5.70;;;1.70;99.90;;;;;;1883545;75;26898;-94
2023/12/15 13:55:52;;;;;;;7.13;3.20;;;2.00;99.90;;;;;;1882031;75;27135;-93
2023/12/15 14:01:38;;;;;;;9.63;3.40;;;1.90;99.90;;;;;;1941214;72;27396;-91
2023/12/15 14:04:26;;;;;;;7.17;3.80;;;1.90;99.90;;;;;;1935283;72;25264;-94
2023/12/15 14:07:14;;;;;;;6.80;3.73;;;1.80;99.90;;;;;;1937490;73;25249;-93
2023/12/15 14:10:05;;;;;;;16.50;6.13;;;1.80;99.90;;;;;;1941804;72;25316;-93
2023/12/15 14:12:54;;;;;;;17.03;6.00;;;1.80;99.90;;;;;;1911614;72;25248;-93
2023/12/15 14:15:43;;;;;;;12.70;5.77;;;1.80;99.90;;;;;;1930193;72;25718;-93
2023/12/15 14:18:32;;;;;;;15.77;6.83;;;1.70;99.90;;;;;;1936941;73;25661;-93
2023/12/15 14:21:21;;;;;;;15.27;6.13;;;1.80;99.90;;;;;;1924495;73;25783;-92
2023/12/15 14:24:09;;;;;;;15.47;6.03;;;1.90;99.90;;;;;;1943924;72;25199;-92
2023/12/15 14:26:58;;;;;;;15.73;5.60;;;1.90;99.90;;;;;;1927823;73;25238;-92
2023/12/15 14:29:47;;;;;;;10.70;5.37;;;1.80;99.90;;;;;;1931236;73;25210;-92
2023/12/15 14:32:35;;;;;;;15.10;6.50;;;1.80;99.90;;;;;;1927420;73;26649;-92
2023/12/15 14:35:23;;;;;;;13.03;5.97;;;1.70;99.90;;;;;;1929853;72;25346;-93
2023/12/15 14:38:11;;;;;;;17.33;6.90;;;1.60;99.90;;;;;;1925848;72;25910;-92
2023/12/15 14:41:00;;;;;;;13.93;6.17;;;1.50;99.90;;;;;;1920485;73;25191;-92
2023/12/15 14:43:49;;;;;;;15.43;5.70;;;1.50;99.90;;;;;;1914136;74;25223;-93
2023/12/15 14:51:32;;;;;;;14.03;6.03;;;1.60;99.90;;;;;;1974611;71;27140;-93
2023/12/15 14:54:20;;;;;;;11.87;4.93;;;1.50;99.90;;;;;;2027596;69;25266;-94
2023/12/15 14:57:09;;;;;;;9.80;5.13;;;1.50;99.90;;;;;;2025056;70;25268;-91
2023/12/15 14:59:58;;;;;;;79.83;30.73;;;1.40;99.90;;;;;;2013197;70;25970;-94
2023/12/15 15:05:54;;;;;;;11.87;6.07;;;1.40;99.90;;;;;;2028949;69;25198;-95
2023/12/15 15:08:43;;;;;;;23.40;10.30;;;1.20;99.90;;;;;;2021209;69;25256;-95
2023/12/15 15:11:34;;;;;;;28.53;12.00;;;1.20;99.90;;;;;;2019039;69;25186;-94
2023/12/15 15:14:23;;;;;;;37.47;17.47;;;1.30;99.90;;;;;;1989943;70;25139;-94
2023/12/15 15:20:08;;;;;;;40.53;17.90;;;1.40;99.90;;;;;;1948924;72;26460;-93
2023/12/15 15:22:58;;;;;;;39.70;16.90;;;1.40;99.90;;;;;;1924488;73;25217;-93
2023/12/15 15:43:02;;;;;;;40.23;16.30;;;1.20;99.90;;;;;;1856843;74;25241;-93
2023/12/15 17:18:19;;;;;;;14.40;5.07;;;1.60;99.90;;;;;;1916962;73;26668;-93
